New Hamburg, Canada
Current Conditions -  °F | °C
As of 10:00 PM on Monday 22 Dec 2014 (Local Time) from CYKF Reporting Station
Haze Haze  
Wind Chill: 22°   Ceiling: 12000
Heat Index: 30°   Visibility: 3mi
Dew Point: 30°   Wind: 9mph
Humidity: 100%   Direction: 80°E
Pressure: 29.99"   Gusts: NA
Location:  43.38°N, 80.72°W
Report Text: CYKF 230300Z AUTO 08008KT 3SM BR FEW006 BKN120 M01/M01 A2999 RMK SLP169
Loading
Personal Weather Stations






























Interactive Weather Map New forecast layout! Learn more

10-Day Weather Forecast

Advertisements
Track Severe Weather on mobile